Time;durP1;ratioP1;P1;durP2;ratioP2;P2;SDS_P1;SDS_P2;PMS_P1;PMS_P2;Temp;Humidity;BMP_temperature;BMP_pressure;BME280_temperature;BME280_humidity;BME280_pressure;Samples;Min_cycle;Max_cycle;Signal;HPM_P1;HPM_P2
2023/12/08 00:01:46;;;;;;;;;;;19.50;43.40;;;;;;5104629;28;19924;-60
2023/12/08 00:04:13;;;;;;;;;;;19.50;43.30;;;;;;5114062;28;19954;-60
2023/12/08 00:06:40;;;;;;;;;;;19.40;43.90;;;;;;5104964;28;19936;-61
2023/12/08 00:09:09;;;;;;;;;;;19.40;43.30;;;;;;5115739;27;19923;-60
2023/12/08 00:11:37;;;;;;;;;;;19.40;43.20;;;;;;5100364;28;19957;-60
2023/12/08 00:14:04;;;;;;;;;;;19.40;43.30;;;;;;5114033;28;19924;-60
2023/12/08 00:16:30;;;;;;;;;;;19.40;43.30;;;;;;5098113;28;19938;-60
2023/12/08 00:18:57;;;;;;;;;;;19.40;43.20;;;;;;5107334;28;19924;-60
2023/12/08 00:21:25;;;;;;;;;;;19.40;43.20;;;;;;5103044;28;19924;-60
2023/12/08 00:23:52;;;;;;;;;;;19.40;43.20;;;;;;5114274;27;19935;-60
2023/12/08 00:26:20;;;;;;;;;;;19.50;43.30;;;;;;5097749;28;19927;-60
2023/12/08 00:28:47;;;;;;;;;;;19.40;43.20;;;;;;5095970;28;19949;-60
2023/12/08 00:31:14;;;;;;;;;;;19.40;43.20;;;;;;5101865;28;19931;-60
2023/12/08 00:33:41;;;;;;;;;;;19.40;43.20;;;;;;5107343;28;19924;-60
2023/12/08 00:36:12;;;;;;;;;;;19.40;43.10;;;;;;5100383;28;19924;-60
2023/12/08 00:38:38;;;;;;;;;;;19.40;43.10;;;;;;5105673;28;20069;-60
2023/12/08 00:41:05;;;;;;;;;;;19.40;43.20;;;;;;5097745;28;19990;-60
2023/12/08 00:43:33;;;;;;;;;;;19.40;43.10;;;;;;5113626;28;19924;-60
2023/12/08 00:46:00;;;;;;;;;;;19.40;43.10;;;;;;5097535;28;19927;-60
2023/12/08 00:48:27;;;;;;;;;;;19.40;43.10;;;;;;5094226;28;19924;-59
2023/12/08 00:50:53;;;;;;;;;;;19.40;43.10;;;;;;5112894;28;19919;-60
2023/12/08 00:53:20;;;;;;;;;;;19.40;43.10;;;;;;5107264;28;19924;-60
2023/12/08 00:55:47;;;;;;;;;;;19.40;43.10;;;;;;5102881;28;19981;-60
2023/12/08 00:58:14;;;;;;;;;;;19.40;43.10;;;;;;5108616;28;19924;-59
2023/12/08 01:00:43;;;;;;;;;;;19.40;43.00;;;;;;5106069;28;19924;-60
2023/12/08 01:03:10;;;;;;;;;;;19.40;43.00;;;;;;5108693;28;19928;-60
2023/12/08 01:05:36;;;;;;;;;;;19.40;43.00;;;;;;5103528;28;19935;-60
2023/12/08 01:08:03;;;;;;;;;;;19.40;43.00;;;;;;5112893;28;19931;-60
2023/12/08 01:10:30;;;;;;;;;;;19.40;43.00;;;;;;5113075;28;20703;-60
2023/12/08 01:12:57;;;;;;;;;;;19.40;43.00;;;;;;5105940;28;20395;-60
2023/12/08 01:15:24;;;;;;;;;;;19.40;43.00;;;;;;5103456;28;19924;-60
2023/12/08 01:17:52;;;;;;;;;;;19.40;42.90;;;;;;5102621;28;19984;-60
2023/12/08 01:20:19;;;;;;;;;;;19.30;42.90;;;;;;5112676;28;19928;-60
2023/12/08 01:22:46;;;;;;;;;;;19.30;42.90;;;;;;5092729;28;19928;-61
2023/12/08 01:25:12;;;;;;;;;;;19.30;42.80;;;;;;5105112;28;19951;-60
2023/12/08 01:27:39;;;;;;;;;;;19.30;42.80;;;;;;5106034;28;19972;-59
2023/12/08 01:30:07;;;;;;;;;;;19.30;42.90;;;;;;5092035;28;19924;-60
2023/12/08 01:32:33;;;;;;;;;;;19.30;42.80;;;;;;5101888;28;19931;-60
2023/12/08 01:35:02;;;;;;;;;;;19.30;42.80;;;;;;5112957;28;19931;-60
2023/12/08 01:37:28;;;;;;;;;;;19.30;42.80;;;;;;5093247;28;19978;-60
2023/12/08 01:39:55;;;;;;;;;;;19.30;42.80;;;;;;5089319;28;19951;-60
2023/12/08 01:42:22;;;;;;;;;;;19.30;42.80;;;;;;5113012;28;19934;-60
2023/12/08 01:44:49;;;;;;;;;;;19.30;42.80;;;;;;5093822;28;19924;-60
2023/12/08 01:47:16;;;;;;;;;;;19.30;42.70;;;;;;5086202;28;19971;-61
2023/12/08 01:49:43;;;;;;;;;;;19.30;42.70;;;;;;5094559;28;19939;-60
2023/12/08 01:52:11;;;;;;;;;;;19.30;42.70;;;;;;5102516;28;19927;-60
2023/12/08 01:54:38;;;;;;;;;;;19.30;42.70;;;;;;5099032;28;20352;-61
2023/12/08 01:57:05;;;;;;;;;;;19.30;42.70;;;;;;5111787;28;19919;-60
2023/12/08 01:59:32;;;;;;;;;;;19.30;42.70;;;;;;5101711;28;19928;-60
2023/12/08 02:01:59;;;;;;;;;;;19.30;42.60;;;;;;5118576;27;20498;-60
2023/12/08 02:04:26;;;;;;;;;;;19.30;42.60;;;;;;5102518;28;20031;-60
2023/12/08 02:06:52;;;;;;;;;;;19.30;42.60;;;;;;5093449;28;19927;-61
2023/12/08 02:09:20;;;;;;;;;;;19.30;42.60;;;;;;5112272;28;19924;-60
2023/12/08 02:11:47;;;;;;;;;;;19.30;42.50;;;;;;5092707;28;19923;-60
2023/12/08 02:14:15;;;;;;;;;;;19.30;42.50;;;;;;5102455;28;19972;-61
2023/12/08 02:16:42;;;;;;;;;;;19.30;42.60;;;;;;5111646;28;19924;-60
2023/12/08 02:19:09;;;;;;;;;;;19.30;42.50;;;;;;5093807;28;19930;-59
2023/12/08 02:21:36;;;;;;;;;;;19.30;42.50;;;;;;5094102;28;19923;-60
2023/12/08 02:24:04;;;;;;;;;;;19.30;42.50;;;;;;5094210;28;19924;-60
2023/12/08 02:26:31;;;;;;;;;;;19.30;42.40;;;;;;5102047;28;19928;-60
2023/12/08 02:28:58;;;;;;;;;;;19.30;42.40;;;;;;5108190;28;19969;-60
2023/12/08 02:31:25;;;;;;;;;;;19.30;42.40;;;;;;5093314;28;19973;-60
2023/12/08 02:33:52;;;;;;;;;;;19.30;42.40;;;;;;5100302;28;19947;-60
2023/12/08 02:36:18;;;;;;;;;;;19.30;42.40;;;;;;5111037;28;19927;-60
2023/12/08 02:38:46;;;;;;;;;;;19.30;42.30;;;;;;5094183;28;20274;-60
2023/12/08 02:41:14;;;;;;;;;;;19.30;42.30;;;;;;5093901;28;20040;-61
2023/12/08 02:43:41;;;;;;;;;;;19.20;42.20;;;;;;5094304;28;19973;-60
2023/12/08 02:46:07;;;;;;;;;;;19.30;42.30;;;;;;5087445;28;20411;-60
2023/12/08 02:48:34;;;;;;;;;;;19.20;42.20;;;;;;5104245;28;20268;-60
2023/12/08 02:51:01;;;;;;;;;;;19.30;42.30;;;;;;5112019;28;19924;-60
2023/12/08 02:53:27;;;;;;;;;;;19.30;42.20;;;;;;5111541;28;19924;-60
2023/12/08 02:55:54;;;;;;;;;;;19.20;42.10;;;;;;5093777;28;19931;-60
2023/12/08 02:58:22;;;;;;;;;;;19.30;42.20;;;;;;5094786;28;19924;-60
2023/12/08 03:00:49;;;;;;;;;;;19.20;42.10;;;;;;5111830;28;19928;-59
2023/12/08 03:03:16;;;;;;;;;;;19.20;42.10;;;;;;5110341;28;19928;-60
2023/12/08 03:05:43;;;;;;;;;;;19.20;42.10;;;;;;5092769;28;20143;-61
2023/12/08 03:08:09;;;;;;;;;;;19.20;42.10;;;;;;5106689;28;19923;-60
2023/12/08 03:10:36;;;;;;;;;;;19.20;42.10;;;;;;5089217;28;19924;-60
2023/12/08 03:13:03;;;;;;;;;;;19.20;42.00;;;;;;5097263;28;19934;-60
2023/12/08 03:15:31;;;;;;;;;;;19.20;42.00;;;;;;5115166;28;19924;-60
2023/12/08 03:17:58;;;;;;;;;;;19.20;42.00;;;;;;5115640;28;19977;-60
2023/12/08 03:20:24;;;;;;;;;;;19.20;42.00;;;;;;5096810;28;19935;-60
2023/12/08 03:22:51;;;;;;;;;;;19.20;42.00;;;;;;5119602;27;20320;-61
2023/12/08 03:25:18;;;;;;;;;;;19.20;42.00;;;;;;5099098;28;19977;-60
2023/12/08 03:27:45;;;;;;;;;;;19.20;42.00;;;;;;5115402;28;19939;-60
2023/12/08 03:30:12;;;;;;;;;;;19.20;42.00;;;;;;5096490;28;19932;-61
2023/12/08 03:32:40;;;;;;;;;;;19.20;41.90;;;;;;5104651;28;19931;-61
2023/12/08 03:35:07;;;;;;;;;;;19.20;41.90;;;;;;5097912;28;19989;-60
2023/12/08 03:37:34;;;;;;;;;;;19.20;41.90;;;;;;5115146;28;19934;-60
2023/12/08 03:40:01;;;;;;;;;;;19.20;41.90;;;;;;5096186;28;19949;-60
2023/12/08 03:42:31;;;;;;;;;;;19.20;41.90;;;;;;5092058;28;19928;-60
2023/12/08 03:44:58;;;;;;;;;;;19.20;42.40;;;;;;5094279;28;19963;-60
2023/12/08 03:47:24;;;;;;;;;;;19.20;41.80;;;;;;5097938;28;19981;-60
2023/12/08 03:49:53;;;;;;;;;;;19.20;42.40;;;;;;5099534;28;19927;-61
2023/12/08 03:52:19;;;;;;;;;;;19.20;41.80;;;;;;5104885;28;19920;-60
2023/12/08 03:54:46;;;;;;;;;;;19.20;41.80;;;;;;5105103;28;19927;-60
2023/12/08 03:57:13;;;;;;;;;;;19.20;41.80;;;;;;5121943;27;19930;-61
2023/12/08 03:59:42;;;;;;;;;;;19.20;41.80;;;;;;5094682;28;19939;-60
2023/12/08 04:02:09;;;;;;;;;;;19.20;41.80;;;;;;5114518;28;19923;-60
2023/12/08 04:04:35;;;;;;;;;;;19.20;41.70;;;;;;5096490;28;20018;-60
2023/12/08 04:07:04;;;;;;;;;;;19.20;41.70;;;;;;5096571;28;19930;-60
2023/12/08 04:09:30;;;;;;;;;;;19.20;41.70;;;;;;5115111;28;19924;-60
2023/12/08 04:11:57;;;;;;;;;;;19.20;41.70;;;;;;5096435;28;19973;-60
2023/12/08 04:14:24;;;;;;;;;;;19.20;41.70;;;;;;5105349;28;19924;-60
2023/12/08 04:16:51;;;;;;;;;;;19.20;41.70;;;;;;5087975;28;19924;-60
2023/12/08 04:19:19;;;;;;;;;;;19.20;41.70;;;;;;5100058;28;19924;-60
2023/12/08 04:21:45;;;;;;;;;;;19.20;41.70;;;;;;5095097;28;19931;-61
2023/12/08 04:24:14;;;;;;;;;;;19.20;42.20;;;;;;5114239;28;19923;-60
2023/12/08 04:26:43;;;;;;;;;;;19.20;41.60;;;;;;5096455;28;19923;-60
2023/12/08 04:29:10;;;;;;;;;;;19.20;41.60;;;;;;5098268;28;19924;-60
2023/12/08 04:31:36;;;;;;;;;;;19.20;41.70;;;;;;5096638;28;19931;-60
2023/12/08 04:34:03;;;;;;;;;;;19.20;41.60;;;;;;5096175;28;19924;-60
2023/12/08 04:36:30;;;;;;;;;;;19.20;41.60;;;;;;5096011;28;19924;-61
2023/12/08 04:38:57;;;;;;;;;;;19.20;41.60;;;;;;5095071;28;19977;-60
2023/12/08 04:41:25;;;;;;;;;;;19.20;41.50;;;;;;5104341;28;19967;-61
2023/12/08 04:43:52;;;;;;;;;;;19.20;41.50;;;;;;5107383;28;19955;-60
2023/12/08 04:46:19;;;;;;;;;;;19.20;41.50;;;;;;5116038;27;20365;-59
2023/12/08 04:48:45;;;;;;;;;;;19.20;41.50;;;;;;5113973;28;19927;-60
2023/12/08 04:51:12;;;;;;;;;;;19.20;41.50;;;;;;5095360;28;19938;-60
2023/12/08 04:53:39;;;;;;;;;;;19.20;41.50;;;;;;5091521;28;19924;-60
2023/12/08 04:56:07;;;;;;;;;;;19.10;41.40;;;;;;5091342;28;20018;-60
2023/12/08 04:58:35;;;;;;;;;;;19.20;41.50;;;;;;5095602;28;19977;-60
2023/12/08 05:01:01;;;;;;;;;;;19.10;41.30;;;;;;5113777;28;19924;-61
2023/12/08 05:03:28;;;;;;;;;;;19.10;41.40;;;;;;5107087;28;19925;-59
2023/12/08 05:05:55;;;;;;;;;;;19.10;41.30;;;;;;5103320;28;19924;-60
2023/12/08 05:08:22;;;;;;;;;;;19.10;41.30;;;;;;5103280;28;19924;-60
2023/12/08 05:10:49;;;;;;;;;;;19.10;41.30;;;;;;5113370;28;19977;-59
2023/12/08 05:13:16;;;;;;;;;;;19.10;41.30;;;;;;5094797;28;19928;-60
2023/12/08 05:15:44;;;;;;;;;;;19.10;41.20;;;;;;5089732;28;19973;-60
2023/12/08 05:18:11;;;;;;;;;;;19.10;41.20;;;;;;5091756;28;19927;-60
2023/12/08 05:20:38;;;;;;;;;;;19.10;41.20;;;;;;5090081;28;19931;-60
2023/12/08 05:23:04;;;;;;;;;;;19.10;41.80;;;;;;5094667;28;20433;-61
2023/12/08 05:25:31;;;;;;;;;;;19.10;41.20;;;;;;5094958;28;19930;-60
2023/12/08 05:27:58;;;;;;;;;;;19.10;41.20;;;;;;5101336;28;19923;-60
2023/12/08 05:30:25;;;;;;;;;;;19.10;41.20;;;;;;5113372;28;19928;-61
2023/12/08 05:32:53;;;;;;;;;;;19.10;41.20;;;;;;5107608;28;19930;-61
2023/12/08 05:35:20;;;;;;;;;;;19.10;41.20;;;;;;5111610;28;19977;-60
2023/12/08 05:37:46;;;;;;;;;;;19.10;41.20;;;;;;5089515;28;19928;-59
2023/12/08 05:40:13;;;;;;;;;;;19.10;41.20;;;;;;5093287;28;19931;-60
2023/12/08 05:42:40;;;;;;;;;;;19.10;41.10;;;;;;5098275;28;19924;-60
2023/12/08 05:45:07;;;;;;;;;;;19.10;41.10;;;;;;5102039;28;19927;-60
2023/12/08 05:47:34;;;;;;;;;;;19.10;41.10;;;;;;5101663;28;20401;-59
2023/12/08 05:50:04;;;;;;;;;;;19.10;41.10;;;;;;5102938;28;19980;-60
2023/12/08 05:52:31;;;;;;;;;;;19.10;41.10;;;;;;5111954;28;20011;-60
2023/12/08 05:54:58;;;;;;;;;;;19.10;40.70;;;;;;5109855;28;20484;-60
2023/12/08 05:57:25;;;;;;;;;;;19.10;41.10;;;;;;5101657;28;19939;-60
2023/12/08 05:59:52;;;;;;;;;;;19.10;41.10;;;;;;5109696;28;19959;-60
2023/12/08 06:02:19;;;;;;;;;;;19.10;41.00;;;;;;5092546;28;19928;-60
2023/12/08 06:04:46;;;;;;;;;;;19.10;41.10;;;;;;5094336;28;19928;-60
2023/12/08 06:07:14;;;;;;;;;;;19.10;41.00;;;;;;5110839;28;19931;-60
2023/12/08 06:09:41;;;;;;;;;;;19.10;41.00;;;;;;5093647;28;19924;-61
2023/12/08 06:12:08;;;;;;;;;;;19.10;41.00;;;;;;5102703;28;19924;-60
2023/12/08 06:14:34;;;;;;;;;;;19.10;41.00;;;;;;5097223;28;19924;-60
2023/12/08 06:17:01;;;;;;;;;;;19.10;41.00;;;;;;5096399;28;19928;-59
2023/12/08 06:19:28;;;;;;;;;;;19.10;41.00;;;;;;5097599;28;20064;-61
2023/12/08 06:21:55;;;;;;;;;;;19.10;41.00;;;;;;5093672;28;20030;-60
2023/12/08 06:24:23;;;;;;;;;;;19.10;40.90;;;;;;5094097;28;19927;-60
2023/12/08 06:26:50;;;;;;;;;;;19.10;40.90;;;;;;5111455;28;19927;-60
2023/12/08 06:29:17;;;;;;;;;;;19.10;40.90;;;;;;5103840;28;19939;-60
2023/12/08 06:31:44;;;;;;;;;;;19.10;40.90;;;;;;5098604;28;19963;-60
2023/12/08 06:34:11;;;;;;;;;;;19.10;40.90;;;;;;5112075;28;19935;-60
2023/12/08 06:36:41;;;;;;;;;;;19.10;40.90;;;;;;5093935;28;19927;-60
2023/12/08 06:39:08;;;;;;;;;;;19.10;40.90;;;;;;5093231;28;19939;-60
2023/12/08 06:41:37;;;;;;;;;;;19.10;40.80;;;;;;5101311;28;19924;-60
2023/12/08 06:44:03;;;;;;;;;;;19.10;40.80;;;;;;5111462;28;19931;-60
2023/12/08 06:46:30;;;;;;;;;;;19.10;40.80;;;;;;5111377;28;20023;-60
2023/12/08 06:48:57;;;;;;;;;;;19.10;40.80;;;;;;5114765;28;19984;-60
2023/12/08 06:51:24;;;;;;;;;;;19.10;40.80;;;;;;5112020;28;20442;-60
2023/12/08 06:53:50;;;;;;;;;;;19.10;40.80;;;;;;5105579;28;19927;-60
2023/12/08 06:56:17;;;;;;;;;;;19.10;40.80;;;;;;5114773;28;20023;-60
2023/12/08 06:58:45;;;;;;;;;;;19.10;40.80;;;;;;5115186;27;20043;-60
2023/12/08 07:01:12;;;;;;;;;;;19.10;40.80;;;;;;5115016;28;19930;-60
2023/12/08 07:03:39;;;;;;;;;;;19.10;40.70;;;;;;5096990;28;19928;-60
2023/12/08 07:06:06;;;;;;;;;;;19.10;40.80;;;;;;5105092;28;19950;-60
2023/12/08 07:08:32;;;;;;;;;;;19.10;40.70;;;;;;5097477;28;19928;-60
2023/12/08 07:10:59;;;;;;;;;;;19.10;40.70;;;;;;5105585;28;19924;-60
2023/12/08 07:13:26;;;;;;;;;;;19.10;40.80;;;;;;5118868;27;19935;-60
2023/12/08 07:15:54;;;;;;;;;;;19.10;40.70;;;;;;5099011;28;19942;-60
2023/12/08 07:18:21;;;;;;;;;;;19.10;40.70;;;;;;5094569;28;19924;-60
2023/12/08 07:20:47;;;;;;;;;;;19.10;40.70;;;;;;5096609;28;19932;-60
2023/12/08 07:23:14;;;;;;;;;;;19.00;40.60;;;;;;5104723;28;19919;-60
2023/12/08 07:25:41;;;;;;;;;;;19.10;40.70;;;;;;5096905;28;19928;-60
2023/12/08 07:28:08;;;;;;;;;;;19.10;40.70;;;;;;5097292;28;19928;-60
2023/12/08 07:30:35;;;;;;;;;;;19.00;40.60;;;;;;5100654;28;19935;-60
2023/12/08 07:33:03;;;;;;;;;;;19.10;40.70;;;;;;5087975;28;19927;-60
2023/12/08 07:35:30;;;;;;;;;;;19.10;40.70;;;;;;5111561;28;19941;-60
2023/12/08 07:37:57;;;;;;;;;;;19.00;40.60;;;;;;5094264;28;19935;-61
2023/12/08 07:40:24;;;;;;;;;;;19.00;40.60;;;;;;5095793;28;19931;-61
2023/12/08 07:42:51;;;;;;;;;;;19.00;40.60;;;;;;5094430;28;19924;-61
2023/12/08 07:45:17;;;;;;;;;;;19.10;40.70;;;;;;5105260;28;19932;-60
2023/12/08 07:47:45;;;;;;;;;;;19.00;40.60;;;;;;5109276;28;19931;-60
2023/12/08 07:50:13;;;;;;;;;;;19.10;40.70;;;;;;5111630;28;20083;-61
2023/12/08 07:52:41;;;;;;;;;;;19.00;40.60;;;;;;5098241;28;19933;-61
2023/12/08 07:55:09;;;;;;;;;;;19.00;40.60;;;;;;5100999;28;19928;-61
2023/12/08 07:57:35;;;;;;;;;;;19.00;40.60;;;;;;5100402;28;19946;-61
2023/12/08 08:00:04;;;;;;;;;;;19.00;40.60;;;;;;5100801;28;20366;-61
2023/12/08 08:02:31;;;;;;;;;;;19.00;40.60;;;;;;5106141;28;19923;-61
2023/12/08 08:04:58;;;;;;;;;;;19.00;40.60;;;;;;5105005;28;20028;-61
2023/12/08 08:07:27;;;;;;;;;;;19.00;40.60;;;;;;5094345;28;19967;-60
2023/12/08 08:09:54;;;;;;;;;;;19.00;40.60;;;;;;5107036;27;20421;-61
2023/12/08 08:12:21;;;;;;;;;;;19.00;40.60;;;;;;5104936;28;19934;-61
2023/12/08 08:14:48;;;;;;;;;;;19.00;40.60;;;;;;5081131;28;19975;-60
2023/12/08 08:17:15;;;;;;;;;;;19.00;40.60;;;;;;5110423;28;19924;-60
2023/12/08 08:19:42;;;;;;;;;;;19.10;40.60;;;;;;5113875;28;19929;-61
2023/12/08 08:22:08;;;;;;;;;;;19.00;40.60;;;;;;5109443;28;19938;-61
2023/12/08 08:24:37;;;;;;;;;;;19.00;40.60;;;;;;5112927;28;19924;-61
2023/12/08 08:27:04;;;;;;;;;;;19.00;40.60;;;;;;5096848;28;19923;-62
2023/12/08 08:29:31;;;;;;;;;;;19.00;40.60;;;;;;5103606;28;19924;-61
2023/12/08 08:31:58;;;;;;;;;;;19.00;40.60;;;;;;5096138;28;19931;-60
2023/12/08 08:34:24;;;;;;;;;;;19.00;40.60;;;;;;5099600;28;19928;-60
2023/12/08 08:36:51;;;;;;;;;;;19.10;40.70;;;;;;5104750;28;19924;-61
2023/12/08 08:39:18;;;;;;;;;;;19.00;40.60;;;;;;5097079;28;19928;-61
2023/12/08 08:41:46;;;;;;;;;;;19.10;40.70;;;;;;5113528;28;19928;-60
2023/12/08 08:44:13;;;;;;;;;;;19.10;40.70;;;;;;5105818;28;19959;-61
2023/12/08 08:46:40;;;;;;;;;;;19.10;40.70;;;;;;5099099;28;19980;-60
2023/12/08 08:49:07;;;;;;;;;;;19.10;40.60;;;;;;5104771;28;20367;-61
2023/12/08 08:51:34;;;;;;;;;;;19.10;40.60;;;;;;5087481;28;19972;-61
2023/12/08 08:54:02;;;;;;;;;;;19.10;40.60;;;;;;5098620;28;19927;-61
2023/12/08 08:56:28;;;;;;;;;;;19.10;40.60;;;;;;5094347;28;19928;-61
2023/12/08 08:58:57;;;;;;;;;;;19.10;40.60;;;;;;5098911;28;19934;-60
2023/12/08 09:01:25;;;;;;;;;;;19.10;40.60;;;;;;5074856;28;19931;-60
2023/12/08 09:03:52;;;;;;;;;;;19.10;40.60;;;;;;5091096;28;19927;-60
2023/12/08 09:06:19;;;;;;;;;;;19.10;40.70;;;;;;5111928;28;19928;-61
2023/12/08 09:08:45;;;;;;;;;;;19.10;40.70;;;;;;5087619;28;19932;-60
2023/12/08 09:11:12;;;;;;;;;;;19.10;40.70;;;;;;5107698;27;19924;-60
2023/12/08 09:13:39;;;;;;;;;;;19.10;40.70;;;;;;5094004;28;19924;-60
2023/12/08 09:16:07;;;;;;;;;;;19.10;40.70;;;;;;5091157;28;19923;-60
2023/12/08 09:18:35;;;;;;;;;;;19.10;40.80;;;;;;5111212;28;19932;-61
2023/12/08 09:21:02;;;;;;;;;;;19.10;40.80;;;;;;5107540;28;19931;-60
2023/12/08 09:23:29;;;;;;;;;;;19.10;40.80;;;;;;5095148;28;19978;-60
2023/12/08 09:25:56;;;;;;;;;;;19.10;40.80;;;;;;5112344;28;19927;-61
2023/12/08 09:28:22;;;;;;;;;;;19.10;40.90;;;;;;5094519;28;19976;-60
2023/12/08 09:30:49;;;;;;;;;;;19.10;40.90;;;;;;5093635;28;19936;-61
2023/12/08 09:33:17;;;;;;;;;;;19.10;40.90;;;;;;5084691;28;19938;-60
2023/12/08 09:35:44;;;;;;;;;;;19.10;40.90;;;;;;5093536;28;19924;-60
2023/12/08 09:38:11;;;;;;;;;;;19.10;40.90;;;;;;5092494;28;19931;-61
2023/12/08 09:40:38;;;;;;;;;;;19.10;41.00;;;;;;5093931;28;19939;-60
2023/12/08 09:43:07;;;;;;;;;;;19.10;40.90;;;;;;5093314;28;19958;-61
2023/12/08 09:45:34;;;;;;;;;;;19.10;41.00;;;;;;5094129;28;19923;-60
2023/12/08 09:48:01;;;;;;;;;;;19.10;41.00;;;;;;5111973;28;19924;-61
2023/12/08 09:50:30;;;;;;;;;;;19.10;41.00;;;;;;5089204;28;19932;-60
2023/12/08 09:52:56;;;;;;;;;;;19.10;41.00;;;;;;5110852;28;19955;-61
2023/12/08 09:55:23;;;;;;;;;;;19.10;41.10;;;;;;5091781;28;19924;-60
2023/12/08 09:57:50;;;;;;;;;;;19.10;41.10;;;;;;5109355;28;19950;-61
2023/12/08 10:00:18;;;;;;;;;;;19.10;41.10;;;;;;5111003;28;20369;-60
2023/12/08 10:02:45;;;;;;;;;;;19.10;41.10;;;;;;5091495;28;19931;-61
2023/12/08 10:05:12;;;;;;;;;;;19.10;41.20;;;;;;5099505;28;19936;-60
2023/12/08 10:07:43;;;;;;;;;;;19.10;41.20;;;;;;5093036;28;20238;-60
2023/12/08 10:10:10;;;;;;;;;;;19.10;41.20;;;;;;5092691;28;19935;-60
2023/12/08 10:12:37;;;;;;;;;;;19.10;41.20;;;;;;5092954;28;19928;-60
2023/12/08 10:15:04;;;;;;;;;;;19.10;41.20;;;;;;5093544;28;19978;-60
2023/12/08 10:17:30;;;;;;;;;;;19.10;41.20;;;;;;5099134;28;20296;-61
2023/12/08 10:20:08;;;;;;;;;;;19.10;41.20;;;;;;5092597;28;20510;-61
2023/12/08 10:22:45;;;;;;;;;;;19.10;41.20;;;;;;5088236;28;19959;-60
2023/12/08 10:25:12;;;;;;;;;;;19.10;41.30;;;;;;5098913;28;19928;-60
2023/12/08 10:27:38;;;;;;;;;;;19.10;41.30;;;;;;5094261;28;19928;-60
2023/12/08 10:30:06;;;;;;;;;;;19.20;41.40;;;;;;5093867;28;19924;-60
2023/12/08 10:32:33;;;;;;;;;;;19.20;41.40;;;;;;5098456;28;19927;-60
2023/12/08 10:35:00;;;;;;;;;;;19.20;41.40;;;;;;5092416;28;19980;-60
2023/12/08 10:37:27;;;;;;;;;;;19.20;41.50;;;;;;5095021;28;19981;-59
2023/12/08 10:39:55;;;;;;;;;;;19.20;41.50;;;;;;5088409;28;19923;-60
2023/12/08 10:42:22;;;;;;;;;;;19.20;41.50;;;;;;5097903;28;19935;-60
2023/12/08 10:44:49;;;;;;;;;;;19.20;41.50;;;;;;5091124;28;19924;-60
2023/12/08 10:47:15;;;;;;;;;;;19.20;41.50;;;;;;5091317;28;19923;-60
2023/12/08 10:49:42;;;;;;;;;;;19.20;41.50;;;;;;5108594;28;19935;-60
2023/12/08 10:52:09;;;;;;;;;;;19.20;41.50;;;;;;5093035;28;19928;-60
2023/12/08 10:54:36;;;;;;;;;;;19.20;41.60;;;;;;5096378;28;19973;-60
2023/12/08 10:57:04;;;;;;;;;;;19.20;41.60;;;;;;5068674;28;20026;-58
2023/12/08 10:59:32;;;;;;;;;;;19.20;41.60;;;;;;5103892;28;19928;-59
2023/12/08 11:01:59;;;;;;;;;;;19.20;37.30;;;;;;5111149;28;19924;-59
2023/12/08 11:04:26;;;;;;;;;;;19.00;31.60;;;;;;5116419;28;19927;-60
2023/12/08 11:06:55;;;;;;;;;;;18.80;30.40;;;;;;5109111;28;20022;-58
2023/12/08 11:09:22;;;;;;;;;;;18.50;31.50;;;;;;5114571;28;19924;-58
2023/12/08 11:11:50;;;;;;;;;;;18.30;33.50;;;;;;5098810;28;19931;-57
2023/12/08 11:14:22;;;;;;;;;;;18.30;34.90;;;;;;5090671;28;19987;-59
2023/12/08 11:16:50;;;;;;;;;;;18.20;35.60;;;;;;5102388;28;20297;-59
2023/12/08 11:19:17;;;;;;;;;;;18.20;36.10;;;;;;5097422;28;19936;-57
2023/12/08 11:21:44;;;;;;;;;;;18.20;36.50;;;;;;5106312;28;19928;-59
2023/12/08 11:24:11;;;;;;;;;;;18.20;36.90;;;;;;5115033;28;19939;-58
2023/12/08 11:26:38;;;;;;;;;;;18.30;37.40;;;;;;5088700;28;19934;-57
2023/12/08 11:29:07;;;;;;;;;;;18.30;37.60;;;;;;5094419;28;19928;-60
2023/12/08 11:31:37;;;;;;;;;;;18.30;37.90;;;;;;5101729;28;19950;-57
2023/12/08 11:34:06;;;;;;;;;;;18.40;38.10;;;;;;5098396;28;19951;-60
2023/12/08 11:36:33;;;;;;;;;;;18.40;38.10;;;;;;5107789;28;19923;-59
2023/12/08 11:39:00;;;;;;;;;;;18.40;38.30;;;;;;5103665;28;19928;-60
2023/12/08 11:41:27;;;;;;;;;;;18.50;38.40;;;;;;5098235;28;19928;-59
2023/12/08 11:43:53;;;;;;;;;;;18.50;38.40;;;;;;5107434;28;19924;-57
2023/12/08 11:46:21;;;;;;;;;;;18.50;38.50;;;;;;5108556;28;19977;-59
2023/12/08 11:48:51;;;;;;;;;;;18.50;38.60;;;;;;5095835;28;20014;-59
2023/12/08 11:51:18;;;;;;;;;;;18.60;38.70;;;;;;5108747;27;19955;-59
2023/12/08 11:53:48;;;;;;;;;;;18.60;38.70;;;;;;5110966;28;19924;-59
2023/12/08 11:56:27;;;;;;;;;;;18.60;38.80;;;;;;5099549;28;20456;-60
2023/12/08 11:59:00;;;;;;;;;;;18.60;38.90;;;;;;5094691;28;19946;-60
2023/12/08 12:01:27;;;;;;;;;;;18.60;38.90;;;;;;5089192;28;19924;-59
2023/12/08 12:03:55;;;;;;;;;;;18.60;39.00;;;;;;5111640;28;20322;-60
2023/12/08 12:06:22;;;;;;;;;;;18.60;39.00;;;;;;5093919;28;19927;-60
2023/12/08 12:08:49;;;;;;;;;;;18.70;39.10;;;;;;5093189;28;20054;-58
2023/12/08 12:11:16;;;;;;;;;;;18.70;39.20;;;;;;5087262;28;19928;-59
2023/12/08 12:13:43;;;;;;;;;;;18.70;39.20;;;;;;5108278;28;19928;-60
2023/12/08 12:16:10;;;;;;;;;;;18.70;39.30;;;;;;5093317;28;20248;-59
2023/12/08 12:18:36;;;;;;;;;;;18.70;39.30;;;;;;5090406;28;19928;-60
2023/12/08 12:21:05;;;;;;;;;;;18.70;39.30;;;;;;5089042;28;19935;-59
2023/12/08 12:23:32;;;;;;;;;;;18.70;39.30;;;;;;5087300;28;19928;-59
2023/12/08 12:25:58;;;;;;;;;;;18.70;39.40;;;;;;5092925;28;19924;-59
2023/12/08 12:28:25;;;;;;;;;;;18.70;39.40;;;;;;5083816;28;19935;-59
2023/12/08 12:30:52;;;;;;;;;;;18.70;39.50;;;;;;5086398;28;19932;-60
2023/12/08 12:33:19;;;;;;;;;;;18.70;39.50;;;;;;5092342;28;20319;-59
2023/12/08 12:35:45;;;;;;;;;;;18.70;39.50;;;;;;5080989;28;19940;-59
2023/12/08 12:38:14;;;;;;;;;;;18.80;39.60;;;;;;5084899;28;19935;-59
2023/12/08 12:40:41;;;;;;;;;;;18.80;39.60;;;;;;5089023;28;19927;-59
2023/12/08 12:43:07;;;;;;;;;;;18.80;39.70;;;;;;5094947;28;19932;-59
2023/12/08 12:45:35;;;;;;;;;;;18.80;39.70;;;;;;5087809;28;19927;-59
2023/12/08 12:48:03;;;;;;;;;;;18.80;39.70;;;;;;5089059;28;19924;-59
2023/12/08 12:50:29;;;;;;;;;;;18.80;39.70;;;;;;5107898;28;19984;-59
2023/12/08 12:53:03;;;;;;;;;;;18.80;39.70;;;;;;5086732;28;19920;-59
2023/12/08 12:55:31;;;;;;;;;;;18.80;39.80;;;;;;5092413;28;19927;-59
2023/12/08 12:58:02;;;;;;;;;;;18.80;39.80;;;;;;5074234;28;22450;-59
2023/12/08 13:00:30;;;;;;;;;;;18.80;39.80;;;;;;5086225;28;19924;-59
2023/12/08 13:02:57;;;;;;;;;;;18.80;39.90;;;;;;5088595;28;19961;-60
2023/12/08 13:05:24;;;;;;;;;;;18.80;39.90;;;;;;5082140;28;20022;-59
2023/12/08 13:07:56;;;;;;;;;;;18.80;39.90;;;;;;5092366;28;19924;-60
2023/12/08 13:10:23;;;;;;;;;;;18.80;39.90;;;;;;5106655;28;19928;-60
2023/12/08 13:12:51;;;;;;;;;;;18.90;40.00;;;;;;5092234;28;19930;-60
2023/12/08 13:15:18;;;;;;;;;;;18.90;40.00;;;;;;5089289;28;19955;-60
2023/12/08 13:17:45;;;;;;;;;;;18.90;40.10;;;;;;5090953;28;20358;-60
2023/12/08 13:20:12;;;;;;;;;;;18.90;40.10;;;;;;5087757;28;20381;-60
2023/12/08 13:22:39;;;;;;;;;;;18.90;40.10;;;;;;5097257;28;19924;-59
2023/12/08 13:25:06;;;;;;;;;;;18.90;40.20;;;;;;5091732;28;19923;-60
2023/12/08 13:27:32;;;;;;;;;;;18.90;40.10;;;;;;5084718;28;19924;-60
2023/12/08 13:30:00;;;;;;;;;;;18.90;40.20;;;;;;5108442;28;20403;-60
2023/12/08 13:32:27;;;;;;;;;;;18.90;40.20;;;;;;5084131;28;20016;-59
2023/12/08 13:34:54;;;;;;;;;;;18.90;40.20;;;;;;5109851;28;19923;-60
2023/12/08 13:37:21;;;;;;;;;;;18.90;40.20;;;;;;5095348;28;20347;-59
2023/12/08 13:39:48;;;;;;;;;;;18.90;40.20;;;;;;5084048;28;20476;-60
2023/12/08 13:42:15;;;;;;;;;;;18.90;40.30;;;;;;5090874;28;19942;-60
2023/12/08 13:44:42;;;;;;;;;;;18.90;40.20;;;;;;5107334;28;19924;-60
2023/12/08 13:47:11;;;;;;;;;;;18.90;40.30;;;;;;5090008;28;19924;-60
2023/12/08 13:49:38;;;;;;;;;;;18.90;40.30;;;;;;5093630;28;19927;-59
2023/12/08 13:52:05;;;;;;;;;;;18.90;40.30;;;;;;5103291;28;19928;-59
2023/12/08 13:54:32;;;;;;;;;;;18.90;40.30;;;;;;5088426;28;19927;-60
2023/12/08 13:56:58;;;;;;;;;;;19.00;40.40;;;;;;5090286;28;19928;-59
2023/12/08 13:59:25;;;;;;;;;;;19.00;40.40;;;;;;5108674;28;19999;-59
2023/12/08 14:01:52;;;;;;;;;;;19.00;40.40;;;;;;5090727;28;19977;-59
2023/12/08 14:04:20;;;;;;;;;;;19.00;40.40;;;;;;5085239;28;19927;-59
2023/12/08 14:06:47;;;;;;;;;;;19.00;40.40;;;;;;5091295;28;20000;-59
2023/12/08 14:09:14;;;;;;;;;;;19.00;40.40;;;;;;5090676;28;19938;-59
2023/12/08 14:11:42;;;;;;;;;;;19.00;40.50;;;;;;5102469;28;20280;-60
2023/12/08 14:14:09;;;;;;;;;;;19.00;40.50;;;;;;5087194;28;19960;-60
2023/12/08 14:16:36;;;;;;;;;;;19.00;40.50;;;;;;5105605;28;19977;-60